CheckWX is a tool to help pilots better visualize weather data.  It is not intended as a substitute for an official pre-flight weather briefing.

09:35:06 UTC

KSNA METAR
John Wayne-Orange County Airport
Santa Ana, California, USA
Current

42 mins ago

KSNA 210853Z AUTO 00000KT 10SM CLR 20/16 A2988 RMK AO2 SLP116 T02000161 50001
Observed
Sep-21 @ 08:53 UTC
Visibility
10 SM
Flight Rules
VFR
Cloud Levels
  • Clear skies
Temperature
20°C / 68°F
Dewpoint
16°C / 61°F
Humidity
78%
Altimeter
29.88" Hg
Pressure
1011.82 hPa
Previous

2 hours ago

KSNA 210753Z AUTO 00000KT 10SM CLR 21/16 A2988 RMK AO2 SLP117 T02060161 402610194 TSNO
Observed
Sep-21 @ 07:53 UTC
Visibility
10 SM
Flight Rules
VFR
Cloud Levels
  • Clear skies
Temperature
21°C / 70°F
Dewpoint
16°C / 61°F
Humidity
73%
Altimeter
29.88" Hg
Pressure
1011.82 hPa
Previous

3 hours ago

KSNA 210653Z AUTO 00000KT 10SM CLR 21/17 A2987 RMK AO2 SLP115 T02110167
Observed
Sep-21 @ 06:53 UTC
Visibility
10 SM
Flight Rules
VFR
Cloud Levels
  • Clear skies
Temperature
21°C / 70°F
Dewpoint
17°C / 63°F
Humidity
78%
Altimeter
29.87" Hg
Pressure
1011.52 hPa